Impacts TAF Board INFO
FOR SITUATIONAL AWARENESS. NOT TO BE USED FOR FLIGHT PLANNING PURPOSES.
IDs:

KSFO - San Francisco Intl, CA, US

Issued at 0301 UTC 20 Nov 2017
Updated at 0340 UTC 20 Nov 2017
Potential Impact None Slight Moderate High
Time0256Z 20/04Z 20/05Z 20/06Z 20/07Z 20/08Z 20/09Z 20/10Z 20/11Z 20/12Z 20/13Z 20/14Z 20/15Z 20/16Z>>
Type OBS PRVL PRVL PRVL PRVL PRVL PRVL PRVL PRVL PRVL PRVL PRVL PRVL PRVL
VIS 10 >6 >6 >6 >6 >6 >6 >6 >6 >6 >6 >6 >6 >6
CIG 150 250 80 80 80 80 80 80 60 60 60 60 60 60
Cover BKN BKN OVC OVC OVC OVC OVC OVC OVC OVC OVC OVC OVC OVC
FltCat VFR VFR VFR VFR VFR VFR VFR VFR VFR VFR VFR VFR VFR VFR
WX -- -- -- -- -- -- -- -- -- -- -- -- -- --
WDir 290 290 230 230 230 230 230 230 130 130 130 130 130 130
WSpd 6 5 4 4 4 4 4 4 4 4 4 4 4 4
WGst -- -- -- -- -- -- -- -- -- -- -- -- -- --

Raw TAF
KSFO 200301Z 2003/2106 29005KT P6SM BKN250
  FM200500 23004KT P6SM FEW040 BKN080 OVC120
  FM201100 13004KT P6SM FEW030 OVC060
  FM202000 07005KT P6SM FEW020 SCT070 BKN200
  FM210100 VRB04KT P6SM FEW050 BKN180


Raw METAR
KSFO 200256Z 29006KT 10SM BKN150 14/08 A3009 RMK AO2 SLP189 T01390078 53006
KSFO 200156Z 30007KT 10SM BKN150 14/08 A3009 RMK AO2 SLP188 T01440083
KSFO 200056Z COR 31004KT 10SM SCT170 BKN200 14/09 A3007 RMK AO2 SLP183 T01440089

METAR Board
Radar Display
Forecast Discussion

FOR SITUATIONAL AWARENESS. NOT TO BE USED FOR FLIGHT PLANNING PURPOSES.